Time;durP1;ratioP1;P1;durP2;ratioP2;P2;SDS_P1;SDS_P2;PMS_P1;PMS_P2;Temp;Humidity;BMP_temperature;BMP_pressure;BME280_temperature;BME280_humidity;BME280_pressure;Samples;Min_cycle;Max_cycle;Signal;HPM_P1;HPM_P2
2021/12/06 00:00:12;;;;;;;13.17;11.30;;;;;;;5.03;76.64;99814.78;5061262;28;20449;-65
2021/12/06 00:02:38;;;;;;;15.00;11.60;;;;;;;5.06;76.63;99817.22;5058779;28;20469;-65
2021/12/06 00:05:06;;;;;;;16.43;11.30;;;;;;;5.06;76.69;99823.34;5060941;28;20487;-65
2021/12/06 00:07:32;;;;;;;17.50;12.90;;;;;;;5.03;76.83;99830.69;5061889;28;20444;-66
2021/12/06 00:09:59;;;;;;;15.73;11.67;;;;;;;4.97;77.05;99821.41;5061349;28;20456;-65
2021/12/06 00:12:26;;;;;;;16.93;13.10;;;;;;;4.86;77.66;99829.28;5062147;28;21050;-66
2021/12/06 00:14:54;;;;;;;18.60;12.23;;;;;;;4.92;77.43;99833.31;5061448;28;20449;-65
2021/12/06 00:17:21;;;;;;;22.30;13.30;;;;;;;4.79;77.67;99834.22;5061284;28;20484;-65
2021/12/06 00:19:47;;;;;;;18.80;14.20;;;;;;;4.62;78.33;99835.47;5060721;28;20500;-66
2021/12/06 00:22:21;;;;;;;20.07;15.53;;;;;;;4.68;78.75;99832.34;5060967;28;20551;-66
2021/12/06 00:24:48;;;;;;;19.33;14.80;;;;;;;4.73;78.49;99837.31;5061200;28;20484;-66
2021/12/06 00:27:15;;;;;;;20.63;14.30;;;;;;;4.75;78.28;99838.03;5061034;28;20504;-66
2021/12/06 00:29:41;;;;;;;23.50;15.80;;;;;;;4.76;78.29;99839.75;5060283;28;20511;-66
2021/12/06 00:32:10;;;;;;;21.37;15.30;;;;;;;4.75;78.36;99838.03;5061449;28;20480;-66
2021/12/06 00:34:37;;;;;;;20.57;15.63;;;;;;;4.72;78.33;99839.13;5061017;28;20453;-66
2021/12/06 00:37:17;;;;;;;23.97;16.33;;;;;;;4.74;78.11;99846.09;5061626;28;20542;-66
2021/12/06 00:39:44;;;;;;;24.73;16.10;;;;;;;4.69;78.31;99849.09;5061155;28;20449;-66
2021/12/06 00:42:11;;;;;;;29.87;16.80;;;;;;;4.67;78.36;99849.22;5061427;28;20572;-67
2021/12/06 00:44:38;;;;;;;24.90;15.17;;;;;;;4.72;78.32;99849.72;5061544;28;20520;-67
2021/12/06 00:47:05;;;;;;;28.83;16.90;;;;;;;4.72;78.22;99849.72;5061147;28;20496;-67
2021/12/06 00:49:33;;;;;;;30.63;17.20;;;;;;;4.73;78.23;99861.16;5061384;28;20456;-66
2021/12/06 00:52:00;;;;;;;24.10;16.40;;;;;;;4.71;78.27;99863.06;5061282;28;20473;-66
2021/12/06 00:54:29;;;;;;;23.90;15.57;;;;;;;4.79;78.19;99865.16;5061367;28;20481;-66
2021/12/06 00:56:56;;;;;;;33.77;18.07;;;;;;;4.82;77.83;99871.06;5061283;28;20480;-66
2021/12/06 00:59:22;;;;;;;27.00;18.30;;;;;;;4.75;78.18;99874.28;5061168;28;20447;-66
2021/12/06 01:01:51;;;;;;;30.03;19.50;;;;;;;4.80;78.15;99880.94;5060950;28;20568;-66
2021/12/06 01:04:17;;;;;;;28.87;17.67;;;;;;;4.83;78.21;99879.88;5060443;28;20459;-66
2021/12/06 01:06:45;;;;;;;24.67;17.80;;;;;;;4.88;78.23;99890.97;5060411;28;20505;-66
2021/12/06 01:09:12;;;;;;;30.60;19.40;;;;;;;4.94;78.03;99892.31;5061309;28;20477;-67
2021/12/06 01:11:39;;;;;;;37.07;21.07;;;;;;;4.73;79.16;99898.22;5061058;28;20497;-67
2021/12/06 01:14:05;;;;;;;31.07;20.13;;;;;;;4.76;79.09;99897.19;5060943;28;20456;-67
2021/12/06 01:16:32;;;;;;;38.77;21.67;;;;;;;4.63;79.70;99905.16;5060450;28;20485;-66
2021/12/06 01:18:59;;;;;;;39.50;21.70;;;;;;;4.74;79.50;99915.81;5060595;28;20441;-66
2021/12/06 01:21:33;;;;;;;39.00;20.83;;;;;;;4.65;79.81;99911.16;5060189;28;20487;-66
2021/12/06 01:24:01;;;;;;;39.70;23.53;;;;;;;4.53;80.59;99915.53;5060766;28;20994;-66
2021/12/06 01:26:41;;;;;;;44.27;23.47;;;;;;;4.55;80.80;99915.44;5060982;28;20495;-66
2021/12/06 01:29:36;;;;;;;37.33;23.57;;;;;;;4.69;80.32;99921.44;5060074;28;21050;-66
2021/12/06 01:32:11;;;;;;;41.40;22.53;;;;;;;4.70;80.25;99919.63;5059780;28;20480;-66
2021/12/06 01:40:09;;;;;;;39.13;22.83;;;;;;;5.03;79.39;99926.91;5059643;28;20527;-66
2021/12/06 01:42:36;;;;;;;39.00;22.97;;;;;;;5.07;78.68;99930.22;5061297;28;20476;-66
2021/12/06 01:45:06;;;;;;;42.30;25.47;;;;;;;4.96;78.94;99925.66;5060456;28;20484;-65
2021/12/06 01:47:34;;;;;;;40.90;23.47;;;;;;;5.03;78.58;99920.78;5056806;28;20461;-66
2021/12/06 01:50:06;;;;;;;40.50;24.00;;;;;;;5.09;78.46;99925.63;5050991;28;20456;-66
2021/12/06 01:52:35;;;;;;;40.70;23.47;;;;;;;5.07;78.47;99925.75;5055272;28;20465;-66
2021/12/06 01:55:02;;;;;;;40.53;23.93;;;;;;;4.98;78.72;99923.78;5048295;28;20459;-66
2021/12/06 01:57:31;;;;;;;42.80;24.30;;;;;;;4.91;78.71;99922.50;5064352;28;20480;-66
2021/12/06 01:59:59;;;;;;;39.90;22.03;;;;;;;4.85;78.99;99920.34;5064421;28;20476;-67
2021/12/06 02:02:27;;;;;;;44.37;24.13;;;;;;;4.63;79.81;99928.97;5064587;28;20504;-67
2021/12/06 02:04:54;;;;;;;38.80;22.77;;;;;;;4.69;80.16;99937.31;5063390;28;20475;-66
2021/12/06 02:07:24;;;;;;;36.57;23.47;;;;;;;4.84;79.61;99922.13;5064295;28;20472;-66
2021/12/06 02:09:51;;;;;;;39.43;23.20;;;;;;;4.82;79.30;99926.69;5064408;28;20449;-65
2021/12/06 02:12:19;;;;;;;38.57;23.90;;;;;;;4.71;79.67;99930.13;5063875;28;20460;-65
2021/12/06 02:14:56;;;;;;;45.77;23.50;;;;;;;4.86;79.64;99935.25;5063921;28;20457;-65
2021/12/06 02:17:26;;;;;;;48.47;24.93;;;;;;;4.76;79.58;99940.38;5063705;28;20484;-66
2021/12/06 02:20:00;;;;;;;43.27;24.37;;;;;;;4.73;80.07;99937.94;5063598;28;20475;-65
2021/12/06 02:22:31;;;;;;;36.37;23.57;;;;;;;4.68;80.43;99946.22;5063016;28;20619;-65
2021/12/06 02:24:58;;;;;;;37.43;22.17;;;;;;;4.63;80.91;99945.69;5063700;28;20448;-65
2021/12/06 02:27:28;;;;;;;42.30;23.43;;;;;;;4.62;80.77;99953.78;5063369;28;20476;-65
2021/12/06 02:29:56;;;;;;;45.77;25.07;;;;;;;4.59;80.98;99949.53;5063387;28;20508;-65
2021/12/06 02:32:23;;;;;;;47.33;24.50;;;;;;;4.54;81.08;99951.66;5059513;28;20852;-66
2021/12/06 02:34:53;;;;;;;43.30;23.00;;;;;;;4.58;81.22;99944.34;5063412;28;20460;-65
2021/12/06 02:37:23;;;;;;;43.67;24.80;;;;;;;4.71;80.86;99946.00;5063640;28;20477;-66
2021/12/06 02:39:52;;;;;;;45.77;26.90;;;;;;;4.85;80.10;99944.16;5064338;28;20481;-65
2021/12/06 02:42:20;;;;;;;43.83;26.30;;;;;;;4.90;79.37;99949.97;5063320;28;20499;-66
2021/12/06 02:44:48;;;;;;;50.00;26.60;;;;;;;4.76;80.03;99964.22;5062326;28;20487;-66
2021/12/06 02:47:17;;;;;;;42.90;24.20;;;;;;;4.45;80.65;99968.22;5062253;28;20496;-64
2021/12/06 02:49:44;;;;;;;40.87;23.97;;;;;;;4.69;80.36;99966.47;5044450;28;20517;-65
2021/12/06 02:52:12;;;;;;;44.50;23.60;;;;;;;4.85;79.65;99960.91;5044777;28;20512;-65
2021/12/06 02:54:39;;;;;;;54.60;24.67;;;;;;;4.67;79.95;99955.13;5057359;28;20449;-64
2021/12/06 02:57:19;;;;;;;42.83;22.67;;;;;;;4.66;80.00;99963.19;5062083;28;20555;-65
2021/12/06 02:59:48;;;;;;;44.70;25.87;;;;;;;4.65;79.96;99958.84;5044962;28;20464;-66
2021/12/06 03:02:17;;;;;;;44.67;23.50;;;;;;;4.57;80.04;99961.22;5042884;28;20489;-66
2021/12/06 03:04:44;;;;;;;40.13;22.70;;;;;;;4.64;79.72;99959.81;5055460;28;20481;-65
2021/12/06 03:07:11;;;;;;;48.30;25.83;;;;;;;4.46;80.40;99968.09;5061413;28;21024;-65
2021/12/06 03:09:40;;;;;;;45.37;24.23;;;;;;;4.61;80.45;99966.16;5061726;28;20483;-66
2021/12/06 03:12:10;;;;;;;42.20;22.80;;;;;;;4.59;80.00;99969.88;5043141;28;20477;-64
2021/12/06 03:14:40;;;;;;;44.93;22.03;;;;;;;4.64;79.88;99963.28;5046514;28;20517;-65
2021/12/06 03:17:10;;;;;;;43.87;21.90;;;;;;;4.34;80.65;99967.16;5042563;28;20556;-65
2021/12/06 03:19:37;;;;;;;42.70;24.23;;;;;;;4.39;80.90;99974.75;5046162;28;20445;-65
2021/12/06 03:22:04;;;;;;;43.97;24.03;;;;;;;4.68;80.26;99977.16;5048048;28;20560;-65
2021/12/06 03:24:31;;;;;;;49.10;23.67;;;;;;;4.80;79.57;99976.28;5063150;28;20484;-65
2021/12/06 03:26:57;;;;;;;48.07;24.03;;;;;;;4.77;79.60;99981.78;5058552;28;20481;-65
2021/12/06 03:29:27;;;;;;;44.70;23.07;;;;;;;4.64;79.68;99989.78;5043186;28;20827;-65
2021/12/06 03:31:54;;;;;;;39.83;23.30;;;;;;;4.85;79.31;99990.03;5042506;28;20510;-65
2021/12/06 03:34:26;;;;;;;41.30;21.23;;;;;;;4.74;79.14;99989.09;5044509;28;20451;-65
2021/12/06 03:36:53;;;;;;;42.07;24.13;;;;;;;4.70;79.42;99986.69;5049207;28;21047;-65
2021/12/06 03:39:23;;;;;;;41.90;22.87;;;;;;;4.70;79.44;99985.84;5062182;28;20430;-65
2021/12/06 03:41:51;;;;;;;41.10;21.93;;;;;;;4.80;79.37;99981.56;5042427;28;20473;-66
2021/12/06 03:44:18;;;;;;;38.80;22.20;;;;;;;4.86;79.01;99988.22;5054124;28;20445;-66
2021/12/06 03:46:46;;;;;;;42.50;22.23;;;;;;;4.97;78.34;99990.13;5056437;28;20910;-66
2021/12/06 03:49:14;;;;;;;35.70;22.50;;;;;;;4.80;78.77;99986.88;5045734;28;20464;-66
2021/12/06 03:51:43;;;;;;;39.77;21.87;;;;;;;4.71;79.29;99993.66;5052507;28;20478;-66
2021/12/06 03:54:11;;;;;;;42.23;21.37;;;;;;;4.57;79.49;99991.16;5042720;28;20453;-66
2021/12/06 03:56:38;;;;;;;41.80;21.10;;;;;;;4.54;79.82;100001.97;5042333;28;20478;-66
2021/12/06 03:59:05;;;;;;;37.13;20.57;;;;;;;4.33;80.64;100005.16;5049022;28;20446;-66
2021/12/06 04:01:32;;;;;;;39.47;21.77;;;;;;;4.51;80.16;100008.34;5057874;28;21028;-66
2021/12/06 04:04:01;;;;;;;39.97;22.80;;;;;;;4.63;80.11;100014.53;5061753;28;20485;-67
2021/12/06 04:06:27;;;;;;;37.43;21.00;;;;;;;4.99;79.09;100017.34;5041788;28;20477;-66
2021/12/06 04:08:54;;;;;;;41.00;21.83;;;;;;;5.12;78.17;100020.81;5057044;28;20508;-66
2021/12/06 04:11:22;;;;;;;40.27;23.37;;;;;;;5.02;78.32;100025.91;5060661;28;20511;-66
2021/12/06 04:13:49;;;;;;;44.67;21.43;;;;;;;5.07;78.40;100022.94;5061014;28;20446;-66
2021/12/06 04:16:16;;;;;;;39.07;21.57;;;;;;;4.89;78.85;100031.22;5055937;28;20934;-65
2021/12/06 04:18:42;;;;;;;43.73;23.73;;;;;;;4.88;79.19;100034.84;5045112;28;20537;-65
2021/12/06 04:21:10;;;;;;;49.10;24.63;;;;;;;4.89;79.20;100030.38;5042507;28;20497;-66
2021/12/06 04:23:37;;;;;;;50.83;25.10;;;;;;;4.92;79.12;100032.00;5042412;28;20529;-65
2021/12/06 04:26:06;;;;;;;44.53;22.20;;;;;;;4.96;79.25;100041.41;5041029;28;20497;-65
2021/12/06 04:28:34;;;;;;;41.53;22.87;;;;;;;5.01;79.11;100041.91;5041785;28;20434;-66
2021/12/06 04:31:02;;;;;;;45.40;22.83;;;;;;;4.92;79.45;100045.25;5050464;28;20476;-66
2021/12/06 04:33:28;;;;;;;51.30;23.13;;;;;;;4.99;79.24;100046.50;5054976;28;20441;-65
2021/12/06 04:35:55;;;;;;;42.37;22.53;;;;;;;4.95;79.39;100045.00;5055048;28;20461;-65
2021/12/06 04:38:23;;;;;;;49.13;25.87;;;;;;;4.98;79.28;100052.72;5051782;28;20533;-66
2021/12/06 04:40:50;;;;;;;50.83;24.17;;;;;;;5.12;79.04;100051.75;5061263;28;20776;-65
2021/12/06 04:43:18;;;;;;;51.53;23.80;;;;;;;4.92;79.20;100056.66;5052643;28;20474;-66
2021/12/06 04:45:44;;;;;;;43.73;22.70;;;;;;;4.93;79.74;100058.38;5061015;28;20480;-66
2021/12/06 04:48:11;;;;;;;50.13;25.17;;;;;;;4.88;79.98;100061.34;5061555;28;20437;-66
2021/12/06 04:50:40;;;;;;;43.40;23.03;;;;;;;4.69;80.50;100066.25;5041079;28;20469;-66
2021/12/06 04:53:09;;;;;;;59.77;24.50;;;;;;;4.86;80.19;100065.91;5052821;28;20437;-66
2021/12/06 04:55:40;;;;;;;49.47;25.20;;;;;;;4.93;80.21;100068.09;5060290;28;20896;-65
2021/12/06 04:58:10;;;;;;;49.47;26.23;;;;;;;4.86;80.35;100073.84;5041543;28;20458;-65
2021/12/06 05:00:40;;;;;;;57.70;25.70;;;;;;;4.67;80.55;100074.28;5043053;28;20487;-65
2021/12/06 05:03:08;;;;;;;53.63;22.77;;;;;;;4.66;80.82;100075.25;5061038;28;20472;-65
2021/12/06 05:05:38;;;;;;;48.83;24.00;;;;;;;4.72;80.64;100081.91;5052322;28;20504;-65
2021/12/06 05:08:07;;;;;;;50.77;24.47;;;;;;;4.67;80.46;100079.59;5051082;28;20441;-66
2021/12/06 05:10:34;;;;;;;44.93;21.80;;;;;;;4.52;80.63;100091.25;5044892;28;20931;-66
2021/12/06 05:13:02;;;;;;;54.40;21.63;;;;;;;4.47;80.72;100088.91;5040681;28;20469;-65
2021/12/06 05:15:29;;;;;;;51.67;24.83;;;;;;;4.66;80.15;100093.78;5042009;28;20549;-65
2021/12/06 05:17:56;;;;;;;45.57;21.07;;;;;;;4.42;80.39;100088.38;5045971;28;20446;-65
2021/12/06 05:20:22;;;;;;;40.90;22.43;;;;;;;4.56;80.43;100087.41;5047335;28;21627;-66
2021/12/06 05:22:49;;;;;;;39.87;20.60;;;;;;;4.39;80.12;100087.72;5057145;28;20562;-64
2021/12/06 05:25:16;;;;;;;42.43;23.13;;;;;;;4.44;79.84;100088.28;5050081;28;20449;-63
2021/12/06 05:27:43;;;;;;;45.30;22.63;;;;;;;4.49;80.00;100096.75;5045072;28;20482;-63
2021/12/06 05:30:14;;;;;;;45.10;22.10;;;;;;;4.62;79.42;100092.31;5058309;28;20507;-63
2021/12/06 05:32:42;;;;;;;40.80;20.80;;;;;;;4.62;79.63;100099.41;5044347;28;20528;-64
2021/12/06 05:35:09;;;;;;;39.40;21.20;;;;;;;4.48;79.98;100095.91;5040558;28;20457;-64
2021/12/06 05:37:38;;;;;;;38.30;20.30;;;;;;;4.36;79.83;100099.41;5050489;28;20497;-64
2021/12/06 05:40:07;;;;;;;41.50;21.00;;;;;;;4.32;80.17;100098.75;5049243;28;20478;-64
2021/12/06 05:42:34;;;;;;;39.93;20.30;;;;;;;4.28;80.25;100105.19;5052009;28;20485;-64
2021/12/06 05:45:00;;;;;;;38.80;21.10;;;;;;;4.41;79.76;100107.88;5041276;28;20454;-64
2021/12/06 05:47:28;;;;;;;37.50;20.80;;;;;;;4.45;79.83;100124.38;5040044;28;20984;-64
2021/12/06 05:49:55;;;;;;;48.87;22.07;;;;;;;4.32;79.84;100127.00;5036633;28;20545;-64
2021/12/06 05:52:22;;;;;;;40.20;21.27;;;;;;;4.44;79.74;100126.16;5056912;28;20575;-66
2021/12/06 05:54:49;;;;;;;51.20;23.50;;;;;;;4.35;79.93;100134.75;5053802;28;20470;-62
2021/12/06 05:57:16;;;;;;;39.87;20.60;;;;;;;4.11;80.40;100126.66;5039836;28;20488;-67
2021/12/06 05:59:43;;;;;;;40.83;19.87;;;;;;;4.36;80.12;100132.94;5037050;28;20449;-61
2021/12/06 06:02:11;;;;;;;38.97;20.00;;;;;;;4.42;80.04;100127.25;5056170;28;20495;-61
2021/12/06 06:04:39;;;;;;;44.23;20.60;;;;;;;4.43;79.73;100136.88;5058813;28;20485;-61
2021/12/06 06:07:06;;;;;;;47.07;21.00;;;;;;;4.42;79.61;100132.53;5050460;28;21018;-60
2021/12/06 06:09:33;;;;;;;45.70;20.10;;;;;;;4.25;79.80;100137.19;5039711;28;20468;-59
2021/12/06 06:12:01;;;;;;;36.17;19.17;;;;;;;4.26;79.65;100132.72;5054121;28;20516;-60
2021/12/06 06:14:28;;;;;;;39.60;21.23;;;;;;;4.12;79.99;100141.59;5058641;28;20505;-59
2021/12/06 06:16:56;;;;;;;43.20;22.07;;;;;;;4.05;80.19;100135.84;5045283;28;20474;-60
2021/12/06 06:19:25;;;;;;;39.03;20.57;;;;;;;4.06;80.41;100142.84;5045255;28;20500;-61
2021/12/06 06:21:53;;;;;;;40.97;19.77;;;;;;;4.05;80.04;100145.59;5058048;28;20562;-60
2021/12/06 06:24:20;;;;;;;39.60;19.80;;;;;;;4.17;79.73;100142.13;5058424;28;20524;-60
2021/12/06 06:26:47;;;;;;;38.80;19.43;;;;;;;4.21;79.63;100140.13;5055677;28;20569;-60
2021/12/06 06:29:14;;;;;;;34.53;18.70;;;;;;;4.10;79.85;100139.03;5039406;28;20488;-60
2021/12/06 06:31:41;;;;;;;36.17;18.10;;;;;;;4.13;79.63;100144.13;5039539;28;20850;-60
2021/12/06 06:34:08;;;;;;;36.83;19.03;;;;;;;4.21;79.70;100151.53;5037231;28;21316;-60
2021/12/06 06:36:35;;;;;;;42.73;20.70;;;;;;;4.10;79.85;100162.84;5037125;28;20535;-59
2021/12/06 06:39:06;;;;;;;44.90;20.20;;;;;;;4.29;79.53;100161.63;5042902;28;20474;-60
2021/12/06 06:41:32;;;;;;;36.47;19.53;;;;;;;4.33;79.03;100168.41;5042997;28;21064;-60
2021/12/06 06:43:59;;;;;;;45.50;22.80;;;;;;;4.19;79.26;100176.44;5041819;28;21190;-60
2021/12/06 06:46:26;;;;;;;39.90;21.50;;;;;;;4.31;79.15;100170.31;5054275;28;20483;-60
2021/12/06 06:48:53;;;;;;;40.63;21.07;;;;;;;4.18;79.05;100172.06;5038861;28;20942;-60
2021/12/06 06:51:20;;;;;;;38.00;19.90;;;;;;;4.15;79.02;100171.34;5055216;28;20468;-60
2021/12/06 06:53:46;;;;;;;35.93;18.70;;;;;;;4.17;79.10;100173.88;5052804;28;20445;-60
2021/12/06 06:56:14;;;;;;;36.10;18.90;;;;;;;4.18;78.83;100172.06;5048411;28;20500;-60
2021/12/06 06:58:41;;;;;;;38.30;20.53;;;;;;;4.03;79.01;100177.44;5058887;28;20437;-60
2021/12/06 07:01:08;;;;;;;39.83;18.83;;;;;;;4.07;79.26;100168.34;5052221;28;20472;-59
2021/12/06 07:03:34;;;;;;;40.90;19.83;;;;;;;4.20;78.62;100165.75;5061010;28;21000;-60
2021/12/06 07:06:02;;;;;;;37.17;18.03;;;;;;;4.20;78.51;100168.38;5060875;28;20480;-60
2021/12/06 07:08:29;;;;;;;38.03;19.37;;;;;;;4.25;78.53;100168.06;5063380;28;20489;-60
2021/12/06 07:10:56;;;;;;;34.50;19.23;;;;;;;4.13;78.75;100167.94;5060512;28;20570;-60
2021/12/06 07:13:26;;;;;;;33.97;18.90;;;;;;;4.05;78.75;100164.09;5062115;28;20441;-61
2021/12/06 07:15:53;;;;;;;37.77;19.03;;;;;;;4.01;78.91;100170.53;5062027;28;20491;-61
2021/12/06 07:18:20;;;;;;;38.40;19.27;;;;;;;3.97;78.96;100172.53;5055801;28;20430;-61
2021/12/06 07:20:46;;;;;;;41.10;18.60;;;;;;;4.15;78.65;100173.13;5048881;28;20476;-62
2021/12/06 07:23:13;;;;;;;32.37;17.53;;;;;;;4.21;78.44;100167.41;5056080;28;20503;-61
2021/12/06 07:25:40;;;;;;;36.60;18.47;;;;;;;4.18;78.50;100172.91;5061106;28;20540;-64
2021/12/06 07:28:08;;;;;;;36.07;17.40;;;;;;;4.14;78.25;100174.06;5057701;28;20544;-63
2021/12/06 07:30:36;;;;;;;32.47;17.70;;;;;;;3.98;78.66;100170.75;5061390;28;20490;-63
2021/12/06 07:33:03;;;;;;;33.00;18.03;;;;;;;4.02;78.54;100172.25;5062031;28;20432;-63
